KVDI/VDI METAR and TAF weather

Enter ICAO airport designator
Station Type Date Time Source
KVDI METAR 2020/09/18 07:35 UTC NOAA

KVDI 180735Z AUTO 32005KT 2 1/2SM BR BKN006 OVC011 22/20 A2977 RMK AO2


Station Type Date Time Source
KVDI Decoded METAR 2020/09/18 07:35 UTC NOAA

Vidalia, Vidalia Municipal Airport, GA, United States (KVDI) 32-11-33N 082-22-19W
Sep 18, 2020 - 03:35 AM EDT / 2020.09.18 0735 UTC
Wind: from the NW (320 degrees) at 6 MPH (5 KT):0
Visibility: 2 1/2 mile(s):0
Sky conditions: overcast
Weather: mist
Temperature: 71 F (22 C)
Dew Point: 68 F (20 C)
Relative Humidity: 88%
Pressure (altimeter): 29.77 in. Hg (1008 hPa)
ob: KVDI 180735Z AUTO 32005KT 2 1/2SM BR BKN006 OVC011 22/20 A2977 RMK AO2
cycle: 7

Station Type Date Time Source
KVDI TAF UTC NOAA

Error!

Example: see airport list